Time,TemperatureF,DewpointF,PressureIn,WindDirection,WindDirectionDegrees,WindSpeedMPH,WindSpeedGustMPH,Humidity,HourlyPrecipIn,Conditions,Clouds,dailyrainin,SolarRadiationWatts/m^2,SoftwareType,DateUTC
2013-04-23 00:02:00,62.0,22.0,30.00,NNW,347,27.0,39.0,21,0.00,,,0.00,0.000000,,2013-04-23 07:02:00,
2013-04-23 00:11:00,62.0,22.0,30.00,NNW,347,27.0,39.0,21,0.00,,,0.00,0.000000,,2013-04-23 07:11:00,
2013-04-23 00:42:00,60.0,21.0,29.97,NNW,328,24.0,40.0,22,0.00,,,0.00,0.000000,,2013-04-23 07:42:00,
2013-04-23 00:52:00,60.0,21.0,29.97,NNW,328,24.0,40.0,22,0.00,,,0.00,0.000000,,2013-04-23 07:52:00,
2013-04-23 01:01:00,60.0,21.0,29.97,NNW,328,24.0,40.0,22,0.00,,,0.00,0.000000,,2013-04-23 08:01:00,
2013-04-23 01:11:00,60.0,21.0,29.97,NNW,328,24.0,40.0,22,0.00,,,0.00,0.000000,,2013-04-23 08:11:00,
2013-04-23 01:42:00,59.0,16.0,29.94,NNW,328,35.0,43.0,18,0.00,,,0.00,0.000000,,2013-04-23 08:42:00,
2013-04-23 01:52:00,59.0,16.0,29.94,NNW,328,35.0,43.0,18,0.00,,,0.00,0.000000,,2013-04-23 08:52:00,
2013-04-23 02:01:00,59.0,16.0,29.94,NNW,328,35.0,43.0,18,0.00,,,0.00,0.000000,,2013-04-23 09:01:00,
2013-04-23 02:11:00,59.0,16.0,29.94,NNW,328,35.0,43.0,18,0.00,,,0.00,0.000000,,2013-04-23 09:11:00,
2013-04-23 02:43:00,55.0,16.0,29.93,NNW,348,42.0,59.0,21,0.00,,,0.00,0.000000,,2013-04-23 09:43:00,
2013-04-23 02:53:00,55.0,16.0,29.93,NNW,348,42.0,59.0,21,0.00,,,0.00,0.000000,,2013-04-23 09:53:00,
2013-04-23 03:02:00,55.0,16.0,29.93,NNW,348,42.0,59.0,21,0.00,,,0.00,0.000000,,2013-04-23 10:02:00,
2013-04-23 03:12:00,55.0,16.0,29.93,NNW,348,42.0,59.0,21,0.00,,,0.00,0.000000,,2013-04-23 10:12:00,
2013-04-23 03:42:00,53.0,17.0,29.90,North,354,47.0,61.0,24,0.00,,,0.00,0.000000,,2013-04-23 10:42:00,
2013-04-23 03:52:00,53.0,17.0,29.90,North,354,47.0,61.0,24,0.00,,,0.00,0.000000,,2013-04-23 10:52:00,
2013-04-23 04:02:00,53.0,17.0,29.90,North,354,47.0,61.0,24,0.00,,,0.00,0.000000,,2013-04-23 11:02:00,
2013-04-23 04:12:00,53.0,17.0,29.90,North,354,47.0,61.0,24,0.00,,,0.00,0.000000,,2013-04-23 11:12:00,
2013-04-23 04:43:00,51.0,15.0,29.88,North,355,50.0,65.0,23,0.00,,,0.00,0.000000,,2013-04-23 11:43:00,
2013-04-23 04:53:00,51.0,15.0,29.88,North,355,50.0,65.0,23,0.00,,,0.00,0.000000,,2013-04-23 11:53:00,
2013-04-23 05:02:00,51.0,15.0,29.88,North,355,50.0,65.0,23,0.00,,,0.00,0.000000,,2013-04-23 12:02:00,
2013-04-23 05:12:00,51.0,15.0,29.88,North,355,50.0,65.0,23,0.00,,,0.00,0.000000,,2013-04-23 12:12:00,
2013-04-23 05:42:00,49.0,13.0,29.89,North,355,54.0,64.0,23,0.00,,,0.00,0.000000,,2013-04-23 12:42:00,
2013-04-23 05:52:00,49.0,13.0,29.89,North,355,54.0,64.0,23,0.00,,,0.00,0.000000,,2013-04-23 12:52:00,
2013-04-23 06:01:00,49.0,13.0,29.89,North,355,54.0,64.0,23,0.00,,,0.00,0.000000,,2013-04-23 13:01:00,
2013-04-23 06:11:00,49.0,13.0,29.89,North,355,54.0,64.0,23,0.00,,,0.00,0.000000,,2013-04-23 13:11:00,
2013-04-23 06:42:00,49.0,12.0,29.88,North,356,49.0,67.0,22,0.00,,,0.00,0.000000,,2013-04-23 13:42:00,
2013-04-23 06:52:00,49.0,12.0,29.88,North,356,49.0,67.0,22,0.00,,,0.00,0.000000,,2013-04-23 13:52:00,
2013-04-23 07:01:00,49.0,12.0,29.88,North,356,49.0,67.0,22,0.00,,,0.00,0.000000,,2013-04-23 14:01:00,
2013-04-23 07:11:00,49.0,12.0,29.88,North,356,49.0,67.0,22,0.00,,,0.00,0.000000,,2013-04-23 14:11:00,
2013-04-23 07:42:00,49.0,11.0,29.91,North,354,51.0,65.0,21,0.00,,,-99.99,0.000000,,2013-04-23 14:42:00,
2013-04-23 07:52:00,49.0,11.0,29.91,North,354,51.0,65.0,21,0.00,,,-99.99,0.000000,,2013-04-23 14:52:00,
2013-04-23 08:01:00,49.0,11.0,29.91,North,354,51.0,65.0,21,0.00,,,-99.99,0.000000,,2013-04-23 15:01:00,
2013-04-23 08:11:00,49.0,11.0,29.91,North,354,51.0,65.0,21,0.00,,,-99.99,0.000000,,2013-04-23 15:11:00,
2013-04-23 08:43:00,49.0,11.0,29.91,North,356,52.0,68.0,21,0.00,,,0.00,24.000000,,2013-04-23 15:43:00,
2013-04-23 08:53:00,49.0,11.0,29.91,North,356,52.0,68.0,21,0.00,,,0.00,24.000000,,2013-04-23 15:53:00,
2013-04-23 09:02:00,49.0,11.0,29.91,North,356,52.0,68.0,21,0.00,,,0.00,24.000000,,2013-04-23 16:02:00,
2013-04-23 09:12:00,49.0,11.0,29.91,North,356,52.0,68.0,21,0.00,,,0.00,24.000000,,2013-04-23 16:12:00,
2013-04-23 09:43:00,49.0,12.0,29.93,NNW,348,49.0,65.0,22,0.00,,,0.00,156.000000,,2013-04-23 16:43:00,
2013-04-23 09:53:00,49.0,12.0,29.93,NNW,348,49.0,65.0,22,0.00,,,0.00,156.000000,,2013-04-23 16:53:00,
2013-04-23 10:02:00,49.0,12.0,29.93,NNW,348,49.0,65.0,22,0.00,,,0.00,156.000000,,2013-04-23 17:02:00,
2013-04-23 10:11:00,49.0,12.0,29.93,NNW,348,49.0,65.0,22,0.00,,,0.00,156.000000,,2013-04-23 17:11:00,
2013-04-23 10:33:00,52.0,15.0,29.99,North,349,39.0,60.0,23,0.00,,,0.00,448.000000,,2013-04-23 17:33:00,
2013-04-23 10:43:00,52.0,15.0,29.99,North,349,39.0,60.0,23,0.00,,,0.00,448.000000,,2013-04-23 17:43:00,
2013-04-23 10:53:00,52.0,15.0,29.99,North,349,39.0,60.0,23,0.00,,,0.00,448.000000,,2013-04-23 17:53:00,
2013-04-23 11:02:00,52.0,15.0,29.99,North,349,39.0,60.0,23,0.00,,,0.00,448.000000,,2013-04-23 18:02:00,
2013-04-23 11:12:00,52.0,15.0,29.99,North,349,39.0,60.0,23,0.00,,,0.00,448.000000,,2013-04-23 18:12:00,
2013-04-23 11:42:00,52.0,14.0,30.00,NNW,341,25.0,48.0,22,0.00,,,0.00,670.000000,,2013-04-23 18:42:00,
2013-04-23 11:52:00,52.0,14.0,30.00,NNW,341,25.0,48.0,22,0.00,,,0.00,670.000000,,2013-04-23 18:52:00,
2013-04-23 12:02:00,52.0,14.0,30.00,NNW,341,25.0,48.0,22,0.00,,,0.00,670.000000,,2013-04-23 19:02:00,
2013-04-23 12:11:00,52.0,14.0,30.00,NNW,341,25.0,48.0,22,0.00,,,0.00,670.000000,,2013-04-23 19:11:00,
2013-04-23 12:42:00,54.0,15.0,30.01,North,349,22.0,35.0,21,0.00,,,0.00,853.000000,,2013-04-23 19:42:00,
2013-04-23 12:52:00,54.0,15.0,30.01,North,349,22.0,35.0,21,0.00,,,0.00,853.000000,,2013-04-23 19:52:00,
2013-04-23 13:01:00,54.0,15.0,30.01,North,349,22.0,35.0,21,0.00,,,0.00,853.000000,,2013-04-23 20:01:00,
2013-04-23 13:11:00,54.0,15.0,30.01,North,349,22.0,35.0,21,0.00,,,0.00,853.000000,,2013-04-23 20:11:00,
2013-04-23 13:42:00,58.0,15.0,30.02,NNW,344,15.0,32.0,18,0.00,,,0.00,989.000000,,2013-04-23 20:42:00,
2013-04-23 13:52:00,58.0,15.0,30.02,NNW,344,15.0,32.0,18,0.00,,,0.00,989.000000,,2013-04-23 20:52:00,
2013-04-23 14:01:00,58.0,15.0,30.02,NNW,344,15.0,32.0,18,0.00,,,0.00,989.000000,,2013-04-23 21:01:00,
2013-04-23 14:11:00,58.0,15.0,30.02,NNW,344,15.0,32.0,18,0.00,,,0.00,989.000000,,2013-04-23 21:11:00,
2013-04-23 14:43:00,63.0,15.0,30.01,East,98,7.0,24.0,15,0.00,,,0.00,1060.000000,,2013-04-23 21:43:00,
2013-04-23 14:52:00,63.0,15.0,30.01,East,98,7.0,24.0,15,0.00,,,0.00,1060.000000,,2013-04-23 21:52:00,
2013-04-23 15:03:00,63.0,15.0,30.01,East,98,7.0,24.0,15,0.00,,,0.00,1060.000000,,2013-04-23 22:03:00,
2013-04-23 15:12:00,63.0,15.0,30.01,East,98,7.0,24.0,15,0.00,,,0.00,1060.000000,,2013-04-23 22:12:00,
2013-04-23 15:42:00,67.0,18.0,30.01,NNE,16,3.0,15.0,15,0.00,,,0.00,1048.000000,,2013-04-23 22:42:00,
2013-04-23 15:52:00,67.0,18.0,30.01,NNE,16,3.0,15.0,15,0.00,,,0.00,1048.000000,,2013-04-23 22:52:00,
2013-04-23 16:02:00,67.0,18.0,30.01,NNE,16,3.0,15.0,15,0.00,,,0.00,1048.000000,,2013-04-23 23:02:00,
2013-04-23 16:12:00,67.0,18.0,30.01,NNE,16,3.0,15.0,15,0.00,,,0.00,1048.000000,,2013-04-23 23:12:00,
2013-04-23 16:42:00,68.0,17.0,30.00,WNW,298,3.0,12.0,14,0.00,,,0.00,1003.000000,,2013-04-23 23:42:00,
2013-04-23 16:52:00,68.0,17.0,30.00,WNW,298,3.0,12.0,14,0.00,,,0.00,1003.000000,,2013-04-23 23:52:00,
2013-04-23 17:01:00,68.0,17.0,30.00,WNW,298,3.0,12.0,14,0.00,,,0.00,1003.000000,,2013-04-24 00:01:00,
2013-04-23 17:11:00,68.0,17.0,30.00,WNW,298,3.0,12.0,14,0.00,,,0.00,1003.000000,,2013-04-24 00:11:00,
2013-04-23 17:42:00,65.0,15.0,29.99,NNE,33,3.0,12.0,14,0.00,,,0.00,878.000000,,2013-04-24 00:42:00,
2013-04-23 17:52:00,65.0,15.0,29.99,NNE,33,3.0,12.0,14,0.00,,,0.00,878.000000,,2013-04-24 00:52:00,
2013-04-23 18:01:00,65.0,15.0,29.99,NNE,33,3.0,12.0,14,0.00,,,0.00,878.000000,,2013-04-24 01:01:00,
2013-04-23 18:11:00,65.0,15.0,29.99,NNE,33,3.0,12.0,14,0.00,,,0.00,878.000000,,2013-04-24 01:11:00,
2013-04-23 18:43:00,60.0,34.0,29.98,NW,325,8.0,15.0,37,0.00,,,0.00,804.000000,,2013-04-24 01:43:00,
2013-04-23 18:52:00,60.0,34.0,29.98,NW,325,8.0,15.0,37,0.00,,,0.00,804.000000,,2013-04-24 01:52:00,
2013-04-23 19:02:00,60.0,34.0,29.98,NW,325,8.0,15.0,37,0.00,,,0.00,804.000000,,2013-04-24 02:02:00,
2013-04-23 19:49:00,60.0,25.0,29.96,NW,308,9.0,16.0,26,0.00,,,0.00,233.000000,,2013-04-24 02:49:00,
2013-04-23 19:58:00,60.0,25.0,29.96,NW,308,9.0,16.0,26,0.00,,,0.00,233.000000,,2013-04-24 02:58:00,
2013-04-23 20:04:00,60.0,25.0,29.96,NW,308,9.0,16.0,26,0.00,,,0.00,233.000000,,2013-04-24 03:04:00,
2013-04-23 20:12:00,60.0,25.0,29.96,NW,308,9.0,16.0,26,0.00,,,0.00,233.000000,,2013-04-24 03:12:00,
2013-04-23 20:53:00,59.0,17.0,29.97,NNW,340,6.0,15.0,19,0.00,,,0.00,196.000000,,2013-04-24 03:53:00,
2013-04-23 20:59:00,59.0,17.0,29.97,NNW,340,6.0,15.0,19,0.00,,,0.00,196.000000,,2013-04-24 03:59:00,
2013-04-23 21:43:00,60.0,22.0,29.97,West,276,4.0,9.0,23,0.00,,,0.00,47.000000,,2013-04-24 04:43:00,
2013-04-23 21:53:00,60.0,22.0,29.97,West,276,4.0,9.0,23,0.00,,,0.00,47.000000,,2013-04-24 04:53:00,
2013-04-23 22:02:00,60.0,22.0,29.97,West,276,4.0,9.0,23,0.00,,,0.00,47.000000,,2013-04-24 05:02:00,
2013-04-23 22:12:00,60.0,22.0,29.97,West,276,4.0,9.0,23,0.00,,,0.00,47.000000,,2013-04-24 05:12:00,
2013-04-23 22:42:00,60.0,12.0,29.97,West,263,8.0,10.0,15,0.00,,,0.00,0.000000,,2013-04-24 05:42:00,
2013-04-23 22:52:00,60.0,12.0,29.97,West,263,8.0,10.0,15,0.00,,,0.00,0.000000,,2013-04-24 05:52:00,
2013-04-23 23:02:00,60.0,12.0,29.97,West,263,8.0,10.0,15,0.00,,,0.00,0.000000,,2013-04-24 06:02:00,
2013-04-23 23:11:00,60.0,12.0,29.97,West,263,8.0,10.0,15,0.00,,,0.00,0.000000,,2013-04-24 06:11:00,
2013-04-23 23:42:00,60.0,14.0,29.97,West,273,6.0,10.0,16,0.00,,,0.00,0.000000,,2013-04-24 06:42:00,
2013-04-23 23:52:00,60.0,14.0,29.97,West,273,6.0,10.0,16,0.00,,,0.00,0.000000,,2013-04-24 06:52:00,